Santa Maria, California
Current Conditions -  °F | °C
As of 11:51 PM on Thursday 30 Oct 2014 (Local Time) from KSMX Reporting Station
Haze Haze  
Wind Chill: 58°   Ceiling: Unl
Heat Index: 58°   Visibility: 6mi
Dew Point: 53°   Wind: 5mph
Humidity: 84%   Direction: 120°ESE
Pressure: 29.96"   Gusts: NA
Location:  34.95°N, 120.43°W
Report Text: KSMX 310651Z AUTO 12004KT 6SM HZ CLR 14/12 A2996 RMK AO2 SLP146 T01440117
Loading
Personal Weather Stations






























Interactive Weather Map
Tropical Storm Tracking
New forecast layout! Learn more

10-Day Weather Forecast

Advertisements
Track Severe Weather on mobile